Time;durP1;ratioP1;P1;durP2;ratioP2;P2;SDS_P1;SDS_P2;PMS_P1;PMS_P2;Temp;Humidity;BMP_temperature;BMP_pressure;BME280_temperature;BME280_humidity;BME280_pressure;Samples;Min_cycle;Max_cycle;Signal;HPM_P1;HPM_P2
2021/06/07 00:02:11;;;;;;;5.85;3.92;;;18.70;99.90;;;19.16;55.75;102374.47;5113143;28;20047;-66
2021/06/07 00:04:40;;;;;;;4.60;4.20;;;18.70;99.90;;;19.12;55.96;102387.94;5094900;28;20040;-66
2021/06/07 00:07:12;;;;;;;4.57;3.45;;;18.70;99.90;;;19.10;55.84;102384.38;5111889;28;20097;-66
2021/06/07 00:09:41;;;;;;;4.53;3.47;;;18.60;99.90;;;19.01;56.08;102379.16;5113021;28;20043;-67
2021/06/07 00:12:14;;;;;;;4.45;3.60;;;18.60;99.90;;;19.02;56.03;102384.50;5112798;28;20100;-66
2021/06/07 00:14:43;;;;;;;4.05;3.70;;;18.60;99.90;;;19.04;56.15;102371.97;5094710;28;20446;-66
2021/06/07 00:17:13;;;;;;;4.00;3.60;;;18.60;99.90;;;19.07;56.02;102382.63;5112549;28;20427;-66
2021/06/07 00:19:42;;;;;;;9.50;4.15;;;18.60;99.90;;;18.93;55.73;102342.59;5112983;28;20063;-67
2021/06/07 00:22:11;;;;;;;5.60;3.90;;;18.60;99.90;;;19.07;55.70;102376.38;5112962;28;20076;-65
2021/06/07 00:24:39;;;;;;;5.53;3.95;;;18.60;99.90;;;18.92;55.70;102358.72;5112904;28;20065;-66
2021/06/07 00:27:08;;;;;;;6.95;3.80;;;18.60;99.90;;;19.06;55.89;102375.50;5112600;28;20088;-66
2021/06/07 00:29:36;;;;;;;5.55;3.90;;;18.60;99.90;;;19.10;55.75;102377.25;5112808;28;20055;-67
2021/06/07 00:32:06;;;;;;;4.15;3.70;;;18.60;99.90;;;19.04;55.83;102382.69;5112710;28;20048;-67
2021/06/07 00:34:35;;;;;;;5.60;3.60;;;18.60;99.90;;;19.02;56.19;102378.25;5112741;28;20112;-66
2021/06/07 00:37:04;;;;;;;5.57;3.87;;;18.60;99.90;;;18.99;56.23;102381.00;5112649;28;20036;-67
2021/06/07 00:39:32;;;;;;;6.50;3.90;;;18.60;99.90;;;18.97;56.00;102372.09;5112756;28;20101;-67
2021/06/07 00:42:00;;;;;;;4.97;3.67;;;18.50;99.90;;;18.92;56.26;102378.41;5112472;28;20558;-66
2021/06/07 00:44:28;;;;;;;4.68;3.83;;;18.50;99.90;;;18.85;56.49;102371.31;5112689;28;20043;-66
2021/06/07 00:46:56;;;;;;;4.40;4.00;;;18.40;99.90;;;18.84;56.35;102366.00;5112058;28;20126;-67
2021/06/07 00:49:24;;;;;;;4.28;3.88;;;18.40;99.90;;;18.87;56.63;102376.69;5112710;28;20070;-67
2021/06/07 00:51:59;;;;;;;5.38;3.50;;;18.30;99.90;;;18.80;56.88;102381.25;5094079;28;20044;-66
2021/06/07 00:54:27;;;;;;;4.18;3.78;;;18.30;99.90;;;18.75;56.96;102379.53;5112335;28;20048;-66
2021/06/07 00:56:56;;;;;;;4.28;3.85;;;18.30;99.90;;;18.75;57.21;102376.84;5112152;28;20075;-66
2021/06/07 00:59:24;;;;;;;8.15;4.28;;;18.30;99.90;;;18.53;57.22;102344.09;5112503;28;20051;-66
2021/06/07 01:01:52;;;;;;;9.48;4.07;;;18.30;99.90;;;18.75;57.38;102382.22;5112278;28;20052;-66
2021/06/07 01:04:20;;;;;;;7.25;4.72;;;18.30;99.90;;;18.57;57.61;102358.34;5112242;28;20097;-66
2021/06/07 01:06:48;;;;;;;5.20;4.38;;;18.20;99.90;;;18.67;57.53;102384.13;5112091;28;20064;-66
2021/06/07 01:09:18;;;;;;;6.22;4.32;;;18.20;99.90;;;18.65;57.67;102375.22;5112256;28;20043;-66
2021/06/07 01:11:46;;;;;;;5.78;4.55;;;18.20;99.90;;;18.63;57.84;102383.28;5112341;28;20092;-66
2021/06/07 01:14:14;;;;;;;8.82;4.75;;;18.20;99.90;;;18.60;57.69;102377.94;5112450;28;20055;-66
2021/06/07 01:16:41;;;;;;;4.53;4.00;;;18.10;99.90;;;18.60;57.72;102379.75;5111990;28;20040;-66
2021/06/07 01:19:10;;;;;;;5.15;4.57;;;18.10;99.90;;;18.59;58.06;102376.19;5095624;28;20139;-66
2021/06/07 01:21:41;;;;;;;4.82;4.22;;;18.10;99.90;;;18.53;58.11;102370.91;5116384;28;20040;-66
2021/06/07 01:24:13;;;;;;;6.43;4.43;;;18.10;99.90;;;18.56;58.15;102365.47;5116065;28;20505;-66
2021/06/07 01:26:41;;;;;;;9.65;4.43;;;18.10;99.90;;;18.54;58.36;102369.09;5097665;28;20079;-67
2021/06/07 01:29:09;;;;;;;6.85;4.78;;;18.10;99.90;;;18.55;58.33;102360.16;5116544;28;20130;-66
2021/06/07 01:31:36;;;;;;;5.35;4.60;;;18.10;99.90;;;18.55;58.28;102371.75;5115642;28;20047;-67
2021/06/07 01:34:05;;;;;;;5.95;4.50;;;18.00;99.90;;;18.55;58.25;102369.09;5116046;28;20036;-66
2021/06/07 01:36:33;;;;;;;5.20;4.20;;;18.10;99.90;;;18.53;58.38;102361.97;5115609;28;20036;-66
2021/06/07 01:39:01;;;;;;;6.38;4.68;;;18.00;99.90;;;18.51;58.19;102366.44;5115649;28;20495;-66
2021/06/07 01:41:32;;;;;;;5.85;4.45;;;18.00;99.90;;;18.50;58.42;102364.69;5116159;28;20123;-66
2021/06/07 01:44:00;;;;;;;7.07;4.30;;;18.00;99.90;;;18.44;58.41;102365.66;5115718;28;20510;-66
2021/06/07 01:46:28;;;;;;;4.57;4.18;;;18.00;99.90;;;18.40;58.61;102360.31;5115365;28;20044;-66
2021/06/07 01:48:56;;;;;;;7.05;4.07;;;18.00;99.90;;;18.40;58.48;102360.31;5115864;28;20039;-66
2021/06/07 01:51:24;;;;;;;4.88;4.07;;;17.90;99.90;;;18.39;58.78;102367.47;5115589;28;20047;-66
2021/06/07 01:53:52;;;;;;;7.57;4.82;;;17.90;99.90;;;18.40;58.64;102363.00;5115367;28;20086;-66
2021/06/07 01:56:20;;;;;;;5.43;4.13;;;17.90;99.90;;;18.27;58.70;102334.59;5115606;28;20047;-66
2021/06/07 01:58:50;;;;;;;5.60;5.05;;;17.90;99.90;;;18.36;59.29;102363.94;5115642;28;20044;-66
2021/06/07 02:01:20;;;;;;;7.00;4.90;;;17.90;99.90;;;18.31;59.13;102361.31;5115509;28;20075;-67
2021/06/07 02:03:50;;;;;;;6.28;4.53;;;17.90;99.90;;;18.30;59.01;102361.34;5115217;28;20050;-66
2021/06/07 02:06:22;;;;;;;5.70;4.68;;;17.90;99.90;;;18.26;59.29;102352.44;5115461;28;20044;-67
2021/06/07 02:08:51;;;;;;;5.63;4.82;;;17.80;99.90;;;17.58;59.34;102248.81;5115063;28;20048;-66
2021/06/07 02:11:24;;;;;;;6.70;4.63;;;17.70;99.90;;;18.23;59.44;102354.28;5114985;28;20497;-66
2021/06/07 02:13:57;;;;;;;7.40;4.75;;;17.80;99.90;;;18.23;59.80;102365.91;5096954;28;20086;-66
2021/06/07 02:16:30;;;;;;;5.65;4.60;;;17.80;99.90;;;18.14;59.86;102359.75;5114888;28;20121;-67
2021/06/07 02:18:58;;;;;;;4.97;3.83;;;17.70;99.90;;;18.11;59.92;102352.66;5097020;28;20415;-66
2021/06/07 02:21:27;;;;;;;5.43;4.32;;;17.70;99.90;;;18.14;60.06;102367.81;5114944;28;20100;-66
2021/06/07 02:23:56;;;;;;;5.97;4.18;;;17.60;99.90;;;18.09;60.51;102357.13;5115106;28;20047;-66
2021/06/07 02:26:28;;;;;;;6.18;4.72;;;17.60;99.90;;;18.05;60.80;102355.38;5115163;28;20079;-67
2021/06/07 02:29:01;;;;;;;5.13;4.57;;;17.60;99.90;;;18.09;61.18;102356.22;5114918;28;20493;-66
2021/06/07 02:31:30;;;;;;;5.57;4.35;;;17.60;99.90;;;17.47;61.52;102252.50;5114037;28;20074;-66
2021/06/07 02:34:03;;;;;;;4.93;4.43;;;17.60;99.90;;;17.97;61.97;102357.25;5115051;28;20108;-66
2021/06/07 02:36:33;;;;;;;6.20;4.30;;;17.50;99.90;;;17.97;62.13;102358.16;5114667;28;20043;-66
2021/06/07 02:39:04;;;;;;;7.47;4.70;;;17.50;99.90;;;17.89;63.29;102356.44;5114628;28;20139;-66
2021/06/07 02:41:32;;;;;;;4.57;4.15;;;17.50;99.90;;;17.86;64.13;102360.06;5114843;28;20096;-66
2021/06/07 02:44:02;;;;;;;6.90;4.38;;;17.40;99.90;;;17.79;64.90;102360.13;5115088;28;20146;-66
2021/06/07 02:46:30;;;;;;;4.97;4.47;;;17.30;99.90;;;17.71;65.43;102362.00;5114511;28;20083;-66
2021/06/07 02:48:58;;;;;;;8.63;4.97;;;17.20;99.90;;;17.56;65.23;102356.78;5114470;28;20052;-66
2021/06/07 02:51:28;;;;;;;6.63;5.05;;;17.10;99.90;;;17.51;64.55;102356.84;5114579;28;20092;-66
2021/06/07 02:53:56;;;;;;;9.07;5.18;;;17.10;99.90;;;17.53;64.31;102362.16;5114412;28;20040;-66
2021/06/07 02:56:24;;;;;;;7.45;5.07;;;17.00;99.90;;;17.29;64.28;102330.25;5113973;28;20044;-66
2021/06/07 02:58:52;;;;;;;8.93;5.22;;;17.00;99.90;;;17.44;64.38;102363.09;5114436;28;20401;-67
2021/06/07 03:01:21;;;;;;;5.70;4.50;;;17.00;99.90;;;17.44;65.61;102364.91;5114148;28;20122;-66
2021/06/07 03:03:52;;;;;;;5.00;4.57;;;17.00;99.90;;;17.40;67.49;102371.19;5114358;28;20071;-66
2021/06/07 03:06:20;;;;;;;5.32;4.82;;;16.90;99.90;;;17.38;68.04;102371.16;5114362;28;20043;-66
2021/06/07 03:08:48;;;;;;;5.43;4.93;;;16.90;99.90;;;17.35;68.83;102371.22;5113614;28;20079;-66
2021/06/07 03:11:16;;;;;;;5.47;4.75;;;16.90;99.90;;;17.33;68.70;102367.66;5113850;28;20096;-66
2021/06/07 03:13:45;;;;;;;7.72;5.35;;;16.80;99.90;;;17.30;68.98;102369.47;5113862;28;20346;-66
2021/06/07 03:16:13;;;;;;;10.35;4.75;;;16.80;99.90;;;17.29;69.46;102367.69;5114156;28;20059;-67
2021/06/07 03:18:43;;;;;;;4.20;3.80;;;16.80;99.90;;;17.17;69.57;102367.81;5113935;28;20043;-66
2021/06/07 03:21:12;;;;;;;4.20;3.90;;;16.70;99.90;;;17.04;69.73;102354.50;5113784;28;20466;-66
2021/06/07 03:23:41;;;;;;;5.15;4.63;;;16.60;99.90;;;17.04;69.86;102367.88;5114001;28;20168;-67
2021/06/07 03:26:12;;;;;;;4.30;3.90;;;16.50;99.90;;;16.94;69.58;102362.59;5113626;28;20139;-66
2021/06/07 03:28:40;;;;;;;4.38;3.70;;;16.50;99.90;;;16.67;68.92;102347.63;5113322;28;20047;-66
2021/06/07 03:31:11;;;;;;;3.35;3.15;;;16.40;99.90;;;16.69;68.83;102360.97;5113576;28;20075;-66
2021/06/07 03:33:39;;;;;;;4.28;3.33;;;16.20;99.90;;;16.58;68.95;102355.69;5113788;28;20097;-66
2021/06/07 03:36:09;;;;;;;3.30;3.10;;;16.20;99.90;;;16.53;69.58;102344.13;5114049;28;20051;-66
2021/06/07 03:38:37;;;;;;;3.45;3.22;;;16.10;99.90;;;16.57;70.35;102351.22;5113662;28;20047;-66
2021/06/07 03:41:07;;;;;;;3.65;3.45;;;16.20;99.90;;;16.59;71.19;102354.78;5113427;28;20104;-66
2021/06/07 03:43:38;;;;;;;3.92;3.63;;;16.10;99.90;;;16.53;70.57;102351.28;5113653;28;20056;-66
2021/06/07 03:46:07;;;;;;;4.18;3.88;;;16.10;99.90;;;16.45;70.29;102350.41;5113500;28;20055;-66
2021/06/07 03:48:35;;;;;;;4.20;3.90;;;16.00;99.90;;;16.45;70.68;102351.28;5113536;28;20051;-66
2021/06/07 03:51:03;;;;;;;4.93;4.47;;;16.00;99.90;;;16.47;71.05;102360.19;5095082;28;20059;-66
2021/06/07 03:53:32;;;;;;;4.72;4.32;;;16.00;99.90;;;16.42;71.04;102359.31;5113311;28;20127;-67
2021/06/07 03:56:00;;;;;;;4.80;4.40;;;16.00;99.90;;;16.41;70.65;102365.56;5112980;28;20046;-66
2021/06/07 03:58:29;;;;;;;5.00;4.60;;;16.00;99.90;;;16.23;70.05;102344.25;5113000;28;20093;-66
2021/06/07 04:00:57;;;;;;;4.88;4.25;;;15.90;99.90;;;16.35;70.33;102360.22;5094880;28;20409;-66
2021/06/07 04:03:25;;;;;;;4.15;3.67;;;15.90;99.90;;;16.42;71.37;102361.06;5113063;28;20052;-66
2021/06/07 04:05:53;;;;;;;5.55;5.05;;;15.90;99.90;;;16.33;70.89;102356.69;5113194;28;20085;-66
2021/06/07 04:08:24;;;;;;;6.00;5.57;;;15.90;99.90;;;16.41;70.51;102365.56;5112885;28;20550;-65
2021/06/07 04:10:54;;;;;;;6.05;4.65;;;15.90;99.90;;;16.50;70.72;102357.50;5094834;28;20462;-65
2021/06/07 04:13:21;;;;;;;4.50;4.10;;;16.00;99.90;;;16.55;71.64;102358.38;5113047;28;20167;-65
2021/06/07 04:15:53;;;;;;;4.53;4.13;;;16.10;99.90;;;16.65;71.86;102359.22;5112934;28;20492;-65
2021/06/07 04:18:21;;;;;;;3.72;3.42;;;16.10;99.90;;;16.68;72.00;102356.53;5112987;28;20039;-65
2021/06/07 04:20:49;;;;;;;3.47;3.22;;;16.20;99.90;;;16.68;72.12;102364.56;5112958;28;20051;-65
2021/06/07 04:23:17;;;;;;;3.75;3.55;;;16.20;99.90;;;16.64;72.64;102357.44;5112648;28;20100;-66
2021/06/07 04:25:45;;;;;;;3.92;3.63;;;16.20;99.90;;;16.61;72.26;102358.34;5112828;28;20381;-65
2021/06/07 04:28:14;;;;;;;4.95;4.50;;;16.20;99.90;;;16.43;71.44;102363.75;5112963;28;20036;-65
2021/06/07 04:30:47;;;;;;;5.18;4.75;;;16.00;99.90;;;16.51;71.31;102356.59;5112563;28;20104;-66
2021/06/07 04:33:15;;;;;;;5.97;5.47;;;16.00;99.90;;;16.51;71.49;102361.09;5112826;28;20047;-66
2021/06/07 04:35:45;;;;;;;7.22;6.13;;;16.10;99.90;;;16.62;71.27;102365.47;5112838;28;20051;-66
2021/06/07 04:38:13;;;;;;;6.97;6.32;;;16.10;99.90;;;16.69;71.37;102364.53;5112798;28;20130;-66
2021/06/07 04:40:44;;;;;;;7.00;6.35;;;16.20;99.90;;;16.76;71.19;102362.72;5094625;28;20419;-66
2021/06/07 04:43:15;;;;;;;6.70;5.95;;;16.20;99.90;;;16.86;71.11;102370.66;5112782;28;20047;-66
2021/06/07 04:45:46;;;;;;;7.00;6.40;;;16.40;99.90;;;16.91;70.75;102371.53;5094603;28;20055;-67
2021/06/07 04:48:17;;;;;;;7.63;6.35;;;16.40;99.90;;;17.02;70.44;102367.00;5094242;28;20060;-67
2021/06/07 04:50:46;;;;;;;7.60;5.75;;;16.60;99.90;;;17.10;70.12;102367.84;5112735;28;20048;-67
2021/06/07 04:53:14;;;;;;;7.55;6.55;;;16.70;99.90;;;17.14;70.76;102369.59;5113262;28;20048;-66
2021/06/07 04:55:45;;;;;;;8.13;6.75;;;16.70;99.90;;;17.26;70.50;102370.41;5098416;28;20085;-67
2021/06/07 04:58:17;;;;;;;6.78;6.10;;;16.80;99.90;;;17.41;70.31;102370.25;5116746;28;20043;-67
2021/06/07 05:00:50;;;;;;;7.45;6.75;;;16.90;99.90;;;17.52;70.56;102374.66;5116561;28;20044;-66
2021/06/07 05:03:19;;;;;;;7.00;6.30;;;17.00;99.90;;;17.58;70.62;102371.03;5116682;28;20465;-67
2021/06/07 05:05:47;;;;;;;6.88;6.18;;;17.10;99.90;;;17.76;70.39;102381.59;5116688;28;20047;-66
2021/06/07 05:08:16;;;;;;;6.82;6.13;;;17.30;99.90;;;17.83;70.03;102377.94;5116341;28;20075;-67
2021/06/07 05:10:44;;;;;;;8.60;6.75;;;17.30;99.90;;;18.07;70.53;102377.69;5116236;28;20578;-67
2021/06/07 05:13:14;;;;;;;6.43;5.90;;;17.60;99.90;;;18.16;69.07;102382.03;5116301;28;20047;-67
2021/06/07 05:15:42;;;;;;;7.22;5.93;;;17.70;99.90;;;18.28;68.33;102384.56;5116404;28;20046;-67
2021/06/07 05:18:11;;;;;;;7.30;5.75;;;17.80;99.90;;;18.39;67.59;102382.69;5116760;28;20126;-67
2021/06/07 05:20:40;;;;;;;7.60;4.97;;;17.90;99.90;;;18.52;65.50;102395.94;5116485;28;20396;-67
2021/06/07 05:23:09;;;;;;;6.70;5.20;;;18.10;99.90;;;18.57;63.34;102388.72;5116403;28;20048;-68
2021/06/07 05:25:39;;;;;;;5.40;4.38;;;18.20;99.90;;;18.73;62.27;102387.63;5116115;28;20051;-67
2021/06/07 05:28:10;;;;;;;5.63;5.05;;;18.40;99.90;;;18.90;62.29;102390.03;5116431;28;20059;-67
2021/06/07 05:30:43;;;;;;;5.15;4.45;;;18.50;99.90;;;19.04;61.82;102395.22;5116044;28;20096;-69
2021/06/07 05:33:11;;;;;;;6.38;4.78;;;18.70;99.90;;;18.88;60.97;102348.94;5098032;28;20066;-67
2021/06/07 05:35:46;;;;;;;6.03;4.95;;;18.80;99.90;;;19.30;60.23;102393.88;5116051;28;20035;-68
2021/06/07 05:38:16;;;;;;;6.57;4.43;;;19.00;99.90;;;19.33;59.35;102385.84;5115823;28;20044;-68
2021/06/07 05:40:48;;;;;;;6.32;4.80;;;19.00;99.90;;;19.53;58.95;102404.31;5116201;28;20055;-68
2021/06/07 05:43:18;;;;;;;5.63;4.55;;;19.20;99.90;;;19.47;57.50;102390.97;5097721;28;20055;-70
2021/06/07 05:45:47;;;;;;;4.50;4.10;;;19.20;99.90;;;19.49;57.22;102394.53;5115963;28;20052;-68
2021/06/07 05:48:15;;;;;;;5.20;4.70;;;19.20;99.90;;;19.57;57.12;102400.63;5115656;28;20396;-67
2021/06/07 05:50:44;;;;;;;6.05;4.65;;;19.20;99.90;;;19.60;57.03;102400.59;5115459;28;20051;-68
2021/06/07 05:53:14;;;;;;;7.45;4.72;;;19.30;99.90;;;19.68;56.92;102401.34;5115462;28;20438;-68
2021/06/07 05:55:44;;;;;;;5.68;4.97;;;19.30;99.90;;;19.68;56.62;102398.66;5116018;28;20040;-68
2021/06/07 05:58:14;;;;;;;7.65;4.90;;;19.40;99.90;;;19.78;57.16;102402.97;5115561;28;20401;-67
2021/06/07 06:00:50;;;;;;;5.88;5.20;;;19.50;99.90;;;19.76;56.87;102404.81;5115734;28;20046;-68
2021/06/07 06:03:20;;;;;;;5.75;5.13;;;19.50;99.90;;;19.54;56.74;102365.78;5115394;28;20074;-68
2021/06/07 06:05:48;;;;;;;7.03;5.15;;;19.50;99.90;;;19.72;56.62;102403.06;5115888;28;20073;-68
2021/06/07 06:08:18;;;;;;;6.03;4.70;;;19.40;99.90;;;19.82;57.47;102403.81;5115309;28;20386;-66
2021/06/07 06:10:46;;;;;;;5.70;4.75;;;19.50;99.90;;;19.79;56.84;102394.00;5115321;28;20043;-64
2021/06/07 06:13:37;;;;;;;6.03;4.93;;;19.60;99.90;;;19.98;56.77;102424.97;5115471;28;20427;-65
2021/06/07 06:16:07;;;;;;;5.50;4.70;;;19.70;99.90;;;20.06;56.24;102404.22;5097017;28;20516;-67
2021/06/07 06:18:37;;;;;;;5.63;4.97;;;19.70;99.90;;;20.07;56.18;102402.44;5115198;28;20092;-67
2021/06/07 06:21:06;;;;;;;5.72;4.85;;;19.80;99.90;;;19.98;56.39;102399.91;5115050;28;20093;-66
2021/06/07 06:23:35;;;;;;;6.63;5.40;;;19.70;99.90;;;20.22;56.75;102410.22;5115266;28;20111;-67
2021/06/07 06:26:03;;;;;;;8.88;5.30;;;19.80;99.90;;;19.64;57.81;102403.22;5115137;28;20062;-67
2021/06/07 06:28:32;;;;;;;6.45;5.50;;;19.50;99.90;;;19.53;57.91;102396.25;5114753;28;20043;-67
2021/06/07 06:30:59;;;;;;;6.40;5.50;;;19.30;99.90;;;19.38;59.34;102401.84;5115208;28;20077;-66
2021/06/07 06:33:29;;;;;;;6.15;5.43;;;19.10;99.90;;;19.61;59.52;102400.56;5114771;28;20116;-67
2021/06/07 06:35:57;;;;;;;6.63;5.05;;;19.20;99.90;;;19.72;57.35;102406.63;5114602;28;20048;-66
2021/06/07 06:38:25;;;;;;;6.40;5.07;;;19.40;99.90;;;19.98;58.28;102405.28;5114585;28;20043;-67
2021/06/07 06:40:53;;;;;;;13.20;5.65;;;19.60;99.90;;;19.98;57.06;102390.03;5114766;28;20047;-68
2021/06/07 06:43:22;;;;;;;8.70;5.18;;;19.80;99.90;;;20.23;56.80;102406.59;5114731;28;20051;-68
2021/06/07 06:45:52;;;;;;;6.75;6.05;;;19.90;99.90;;;19.84;56.08;102416.25;5114532;28;20047;-68
2021/06/07 06:48:20;;;;;;;6.50;5.47;;;19.60;99.90;;;19.29;58.37;102404.66;5114172;28;20100;-69
2021/06/07 06:50:49;;;;;;;6.32;5.05;;;19.10;99.90;;;19.80;58.30;102407.38;5114761;28;20071;-68
2021/06/07 06:53:20;;;;;;;5.82;5.22;;;19.40;99.90;;;20.17;58.85;102417.47;5114678;28;20043;-68
2021/06/07 06:55:49;;;;;;;7.32;5.20;;;19.70;99.90;;;20.40;57.46;102408.03;5114454;28;20112;-68
2021/06/07 06:58:18;;;;;;;6.82;5.22;;;20.00;99.90;;;20.53;56.40;102406.91;5095937;28;20043;-68
2021/06/07 07:00:47;;;;;;;5.10;4.60;;;20.20;99.90;;;20.76;56.66;102409.09;5096020;28;20051;-68
2021/06/07 07:03:17;;;;;;;8.52;5.53;;;20.40;99.90;;;20.82;54.33;102405.38;5114089;28;20497;-68
2021/06/07 07:05:48;;;;;;;5.78;4.93;;;20.60;99.90;;;20.94;55.08;102400.63;5114201;28;20059;-69
2021/06/07 07:08:16;;;;;;;;;;;20.60;99.90;;;21.16;55.10;102403.72;5114852;28;20093;-68
2021/06/07 07:10:46;;;;;;;5.45;4.95;;;20.90;99.90;;;21.27;54.15;102398.97;5114065;28;20667;-68
2021/06/07 07:13:14;;;;;;;7.10;5.57;;;21.00;99.90;;;21.32;52.76;102405.13;5113919;28;20040;-69
2021/06/07 07:15:42;;;;;;;8.63;4.90;;;21.10;99.90;;;21.42;52.65;102412.06;5113982;28;20043;-69
2021/06/07 07:18:11;;;;;;;5.57;4.38;;;21.10;99.90;;;21.55;53.10;102413.53;5113726;28;20097;-68
2021/06/07 07:20:41;;;;;;;7.35;5.15;;;21.20;99.90;;;21.68;52.60;102406.03;5114105;28;20118;-69
2021/06/07 07:23:12;;;;;;;6.10;5.22;;;21.40;99.90;;;21.83;51.58;102409.25;5114319;28;20100;-69
2021/06/07 07:25:42;;;;;;;5.50;4.00;;;21.50;99.90;;;21.84;51.25;102411.00;5114051;28;20104;-68
2021/06/07 07:28:11;;;;;;;5.15;4.72;;;21.60;99.90;;;22.01;51.21;102414.13;5113924;28;20532;-68
2021/06/07 07:30:43;;;;;;;8.77;4.85;;;21.70;99.90;;;22.15;50.92;102416.44;5095549;28;20085;-69
2021/06/07 07:33:23;;;;;;;4.75;4.35;;;21.80;99.90;;;22.03;49.65;102411.38;5113628;28;20485;-69
2021/06/07 07:35:51;;;;;;;5.07;4.57;;;21.80;99.90;;;22.10;48.94;102403.13;5113699;28;20093;-68
2021/06/07 07:38:21;;;;;;;5.70;4.40;;;21.80;99.90;;;22.18;48.29;102403.75;5113733;28;20097;-68
2021/06/07 07:40:49;;;;;;;5.35;4.05;;;22.00;99.90;;;22.38;49.69;102414.88;5113368;28;20066;-69
2021/06/07 07:43:17;;;;;;;7.47;4.60;;;22.00;99.90;;;22.55;48.65;102408.13;5113707;28;20051;-68
2021/06/07 07:45:45;;;;;;;9.60;5.25;;;22.20;99.90;;;21.54;47.67;102412.63;5095237;28;20078;-69
2021/06/07 07:48:13;;;;;;;6.15;5.25;;;21.70;99.90;;;21.05;51.31;102405.78;5113068;28;20085;-68
2021/06/07 07:50:41;;;;;;;4.95;4.07;;;21.00;99.90;;;21.66;51.31;102399.78;5113272;28;20043;-69
2021/06/07 07:53:09;;;;;;;4.13;3.75;;;21.20;99.90;;;21.90;48.65;102426.13;5113458;28;20048;-69
2021/06/07 07:55:40;;;;;;;5.90;4.10;;;21.50;99.90;;;22.19;48.88;102405.53;5094844;28;20055;-69
2021/06/07 07:58:11;;;;;;;5.22;4.20;;;21.80;99.90;;;22.39;46.79;102416.66;5094887;28;20055;-69
2021/06/07 08:00:41;;;;;;;3.90;3.60;;;22.00;99.90;;;22.59;45.37;102410.69;5113431;28;20126;-69
2021/06/07 08:03:09;;;;;;;4.28;3.88;;;22.20;99.90;;;22.57;45.30;102404.47;5113125;28;20036;-69
2021/06/07 08:05:37;;;;;;;4.10;3.70;;;22.30;99.90;;;22.79;46.08;102394.81;5113004;28;20044;-69
2021/06/07 08:08:06;;;;;;;4.05;3.50;;;22.50;99.90;;;23.04;45.70;102406.63;5112896;28;20072;-69
2021/06/07 08:10:36;;;;;;;;;;;22.70;99.90;;;23.10;44.71;102408.22;5113744;28;20046;-69
2021/06/07 08:13:06;;;;;;;5.20;3.80;;;22.90;99.90;;;23.18;42.16;102406.19;5112854;28;19924;-69
2021/06/07 08:15:35;;;;;;;4.23;3.80;;;22.90;99.90;;;23.33;42.27;102392.22;5113097;28;20081;-69
2021/06/07 08:18:04;;;;;;;8.55;4.32;;;23.10;99.90;;;23.43;42.46;102390.97;5112970;28;20051;-69
2021/06/07 08:20:33;;;;;;;4.18;3.60;;;23.20;99.90;;;23.66;42.93;102395.59;5112907;28;20047;-69
2021/06/07 08:23:01;;;;;;;4.03;3.72;;;23.30;99.90;;;23.72;42.55;102393.56;5112735;28;20123;-68
2021/06/07 08:25:30;;;;;;;4.65;3.85;;;23.40;99.90;;;23.67;42.05;102373.06;5113173;28;20536;-71
2021/06/07 08:27:58;;;;;;;4.97;3.72;;;23.50;99.90;;;24.00;42.21;102402.47;5112119;28;20119;-67
2021/06/07 08:30:32;;;;;;;5.25;3.83;;;23.70;99.90;;;24.05;41.66;102405.06;5112664;28;20051;-67
2021/06/07 08:33:03;;;;;;;4.43;3.80;;;23.80;99.90;;;24.12;40.99;102407.47;5112642;28;20071;-66
2021/06/07 08:35:32;;;;;;;4.80;3.58;;;23.90;99.90;;;24.18;40.88;102395.56;5112512;28;20505;-67
2021/06/07 08:38:01;;;;;;;6.57;4.38;;;23.90;99.90;;;24.25;41.60;102393.53;5112740;28;20172;-66
2021/06/07 08:40:28;;;;;;;6.20;3.60;;;24.10;99.90;;;24.42;41.10;102400.06;5112657;28;20463;-67
2021/06/07 08:42:57;;;;;;;5.65;3.35;;;24.20;99.90;;;24.26;41.72;102388.03;5094420;28;20047;-66
2021/06/07 08:45:27;;;;;;;5.45;4.00;;;24.20;99.90;;;24.50;41.71;102408.78;5112547;28;20054;-66
2021/06/07 08:47:56;;;;;;;4.50;4.10;;;24.30;99.90;;;24.62;41.54;102394.78;5112623;28;20480;-66
2021/06/07 08:50:27;;;;;;;7.20;4.60;;;24.40;99.90;;;24.58;40.13;102397.69;5112585;28;20044;-66
2021/06/07 08:52:55;;;;;;;5.50;3.90;;;24.30;99.90;;;24.39;41.35;102388.50;5112375;28;20047;-71
2021/06/07 08:55:28;;;;;;;5.35;4.13;;;24.20;99.90;;;24.59;40.98;102394.91;5112559;28;20056;-67
2021/06/07 08:58:04;;;;;;;5.32;4.32;;;24.30;99.90;;;24.59;41.73;102392.19;5112763;28;20051;-67
2021/06/07 09:00:37;;;;;;;9.80;4.63;;;24.30;99.90;;;24.49;41.53;102373.66;5094239;28;20048;-68
2021/06/07 09:03:13;;;;;;;5.15;4.10;;;24.30;99.90;;;24.77;41.67;102398.75;5112339;28;20104;-68
2021/06/07 09:05:44;;;;;;;5.72;4.43;;;24.40;99.90;;;24.62;40.37;102393.91;5112342;28;20135;-66
2021/06/07 09:08:14;;;;;;;6.30;4.50;;;24.40;99.90;;;24.71;41.21;102389.03;5112180;28;20051;-66
2021/06/07 09:10:44;;;;;;;;;;;24.40;99.90;;;24.65;40.27;102383.84;5112966;28;20048;-66
2021/06/07 09:13:15;;;;;;;9.35;4.50;;;24.40;99.90;;;24.76;40.76;102383.44;5112277;28;20365;-66
2021/06/07 09:15:47;;;;;;;5.40;4.90;;;24.40;99.90;;;23.85;41.71;102381.38;5112451;28;20100;-66
2021/06/07 09:18:27;;;;;;;5.43;4.50;;;23.90;99.90;;;24.15;42.08;102366.81;5112497;28;20109;-66
2021/06/07 09:21:01;;;;;;;6.97;4.90;;;23.90;99.90;;;24.37;41.36;102379.53;5093979;28;20043;-66
2021/06/07 09:23:44;;;;;;;10.48;5.03;;;24.10;99.90;;;24.31;41.03;102388.78;5112172;28;20127;-66
2021/06/07 09:26:27;;;;;;;8.10;4.65;;;24.00;99.90;;;22.89;43.15;102371.13;5112381;28;20051;-67
2021/06/07 09:29:00;;;;;;;11.05;4.47;;;23.00;99.90;;;23.54;43.32;102383.38;5112430;28;20050;-67
2021/06/07 09:31:32;;;;;;;9.40;5.35;;;23.10;99.90;;;23.43;43.27;102393.69;5112309;28;20497;-67
2021/06/07 09:34:06;;;;;;;6.75;5.30;;;23.20;99.90;;;22.75;44.95;102389.53;5112083;28;20052;-67
2021/06/07 09:36:42;;;;;;;8.38;5.10;;;22.50;99.90;;;23.39;44.92;102386.59;5112211;28;20052;-67
2021/06/07 09:39:14;;;;;;;5.45;4.68;;;22.90;99.90;;;23.77;44.99;102386.19;5112413;28;20188;-67
2021/06/07 09:42:01;;;;;;;6.75;5.10;;;23.30;99.90;;;23.92;43.17;102374.84;5116031;28;20048;-67
2021/06/07 09:44:37;;;;;;;8.65;5.47;;;23.70;99.90;;;24.24;42.92;102397.16;5115934;28;20122;-67
2021/06/07 09:47:19;;;;;;;9.57;5.60;;;23.90;99.90;;;24.50;43.33;102402.50;5115717;28;20055;-66
2021/06/07 09:49:52;;;;;;;10.30;5.07;;;24.20;99.90;;;24.71;42.06;102398.97;5115761;28;20135;-70
2021/06/07 09:52:26;;;;;;;9.88;5.80;;;24.40;99.90;;;24.73;40.67;102402.53;5115719;28;20047;-68
2021/06/07 09:55:06;;;;;;;7.68;6.00;;;24.50;99.90;;;23.95;44.16;102369.31;5115481;28;20048;-67
2021/06/07 09:57:43;;;;;;;6.80;6.10;;;23.90;99.90;;;24.23;41.67;102399.00;5115537;28;20050;-65
2021/06/07 10:00:13;;;;;;;8.43;6.30;;;24.00;99.90;;;22.89;44.63;102374.72;5115447;28;20046;-65
2021/06/07 10:02:42;;;;;;;7.53;5.43;;;23.00;99.90;;;23.28;45.57;102381.53;5115519;28;20097;-65
2021/06/07 10:05:11;;;;;;;10.50;7.68;;;22.90;99.90;;;23.39;43.79;102374.91;5115504;28;20039;-65
2021/06/07 10:07:53;;;;;;;9.07;6.78;;;23.10;99.90;;;23.72;44.52;102398.09;5115413;28;20040;-65
2021/06/07 10:10:23;;;;;;;7.57;6.50;;;23.30;99.90;;;24.02;43.97;102391.66;5115384;28;20234;-66
2021/06/07 10:13:04;;;;;;;8.15;6.65;;;23.60;99.90;;;24.08;42.60;102389.59;5115348;28;20062;-67
2021/06/07 10:15:36;;;;;;;11.43;7.80;;;23.80;99.90;;;23.76;41.91;102373.63;5115312;28;20043;-67
2021/06/07 10:18:10;;;;;;;8.45;6.40;;;23.80;99.90;;;24.07;44.97;102386.97;5114885;28;20460;-66
2021/06/07 10:20:51;;;;;;;10.45;7.85;;;23.70;99.90;;;24.15;42.42;102384.88;5115068;28;20043;-66
2021/06/07 10:23:23;;;;;;;8.68;7.05;;;23.90;99.90;;;24.30;42.83;102381.59;5115318;28;20551;-66
2021/06/07 10:25:53;;;;;;;8.80;5.63;;;23.90;99.90;;;24.40;43.83;102384.81;5115112;28;20048;-68